This is the latest recevied weather packets stored in our database for station/object EA1ZE. If no packets are shown the sender has not sent any weather packets the latest 10 day(s).
| Time | Temp. | Humidity | Pressure | Rain* | Wind** | Luminosity | Snow |
|---|---|---|---|---|---|---|---|
| 1787733058 | 20.56° C | 58% | 1008.9 hPa | 0 mm | - | - | - |
| 1787732153 | 19.44° C | 59% | 1008.8 hPa | 0 mm | - | - | - |
| 1787731262 | 18.89° C | 62% | 1009.2 hPa | 0 mm | - | - | - |
| 1787730352 | 17.78° C | 67% | 1009.7 hPa | 0 mm | - | - | - |
| 1787729451 | 17.22° C | 68% | 1009.8 hPa | 0 mm | - | - | - |
| 1787728557 | 17.78° C | 67% | 1009.8 hPa | 0 mm | - | - | - |
| 1787727649 | 17.22° C | 65% | 1009.2 hPa | 0 mm | - | - | - |
| 1787726750 | 16.67° C | 67% | 1009.2 hPa | 0 mm | - | - | - |
| 1787725844 | 16.67° C | 70% | 1009.8 hPa | 0 mm | - | - | - |
| 1787724942 | 16.67° C | 70% | 1009.9 hPa | 0 mm | - | - | - |
| 1787724052 | 16.67° C | 70% | 1009.8 hPa | 0 mm | - | - | - |
| 1787723140 | 16.67° C | 70% | 1009.7 hPa | 0 mm | - | - | - |
| 1787722239 | 16.67° C | 70% | 1009.8 hPa | 0 mm | - | - | - |
| 1787721340 | 16.67° C | 69% | 1010 hPa | 0 mm | - | - | - |
| 1787720447 | 16.67° C | 68% | 1010 hPa | 0 mm | - | - | - |
| 1787719535 | 17.22° C | 67% | 1009.9 hPa | 0 mm | - | - | - |
| 1787718632 | 17.22° C | 66% | 1010.3 hPa | 0 mm | - | - | - |
| 1787717730 | 17.22° C | 67% | 1010.3 hPa | 0 mm | - | - | - |
| 1787716829 | 17.22° C | 66% | 1010.4 hPa | 0 mm | - | - | - |
| 1787715927 | 17.22° C | 66% | 1010.4 hPa | 0 mm | - | - | - |
| 1787715025 | 17.78° C | 66% | 1010.6 hPa | 0 mm | - | - | - |
| 1787714125 | 17.78° C | 66% | 1010.7 hPa | 0 mm | - | - | - |
| 1787713221 | 17.78° C | 65% | 1010.9 hPa | 0 mm | - | - | - |
| 1787712321 | 17.78° C | 64% | 1011.1 hPa | 0 mm | - | - | - |
| 1787711419 | 17.78° C | 65% | 1011 hPa | 0 mm | - | - | - |
* Rain latest hour (hover to see other rain measurements)
** Current wind speed in m/s (hover to see current wind gust speed)